sensor_id;sensor_type;location;lat;lon;timestamp;temperature;humidity
23156;DHT22;11746;50.876;4.246;2023-02-15T00:00:23;8.10;99.90
23156;DHT22;11746;50.876;4.246;2023-02-15T00:02:49;8.00;99.90
23156;DHT22;11746;50.876;4.246;2023-02-15T00:05:15;8.00;99.90
23156;DHT22;11746;50.876;4.246;2023-02-15T00:07:40;8.10;99.90
23156;DHT22;11746;50.876;4.246;2023-02-15T00:10:07;8.10;99.90
23156;DHT22;11746;50.876;4.246;2023-02-15T00:12:33;8.10;99.90
23156;DHT22;11746;50.876;4.246;2023-02-15T00:14:59;8.00;99.90
23156;DHT22;11746;50.876;4.246;2023-02-15T00:17:27;8.00;99.90
23156;DHT22;11746;50.876;4.246;2023-02-15T00:19:54;8.00;99.90
23156;DHT22;11746;50.876;4.246;2023-02-15T00:22:20;8.10;99.90
23156;DHT22;11746;50.876;4.246;2023-02-15T00:24:46;8.10;99.90
23156;DHT22;11746;50.876;4.246;2023-02-15T00:27:12;8.10;99.90
23156;DHT22;11746;50.876;4.246;2023-02-15T00:29:38;8.00;99.90
23156;DHT22;11746;50.876;4.246;2023-02-15T00:32:03;8.00;99.90
23156;DHT22;11746;50.876;4.246;2023-02-15T00:34:29;8.10;99.90
23156;DHT22;11746;50.876;4.246;2023-02-15T00:36:55;8.10;99.90
23156;DHT22;11746;50.876;4.246;2023-02-15T00:39:21;8.00;99.90
23156;DHT22;11746;50.876;4.246;2023-02-15T00:41:49;7.90;99.90
23156;DHT22;11746;50.876;4.246;2023-02-15T00:44:15;7.90;99.90
23156;DHT22;11746;50.876;4.246;2023-02-15T00:46:41;7.90;99.90
23156;DHT22;11746;50.876;4.246;2023-02-15T00:49:07;7.90;99.90
23156;DHT22;11746;50.876;4.246;2023-02-15T00:51:34;7.90;99.90
23156;DHT22;11746;50.876;4.246;2023-02-15T00:54:00;7.80;99.90
23156;DHT22;11746;50.876;4.246;2023-02-15T00:56:27;7.70;99.90
23156;DHT22;11746;50.876;4.246;2023-02-15T00:58:54;7.60;99.90
23156;DHT22;11746;50.876;4.246;2023-02-15T01:01:20;7.50;99.90
23156;DHT22;11746;50.876;4.246;2023-02-15T01:03:47;7.40;99.90
23156;DHT22;11746;50.876;4.246;2023-02-15T01:06:15;7.30;99.90
23156;DHT22;11746;50.876;4.246;2023-02-15T01:08:41;7.20;99.90
23156;DHT22;11746;50.876;4.246;2023-02-15T01:11:13;7.10;99.90
23156;DHT22;11746;50.876;4.246;2023-02-15T01:13:40;7.10;99.90
23156;DHT22;11746;50.876;4.246;2023-02-15T01:16:06;7.10;99.90
23156;DHT22;11746;50.876;4.246;2023-02-15T01:18:33;7.00;99.90
23156;DHT22;11746;50.876;4.246;2023-02-15T01:20:59;7.00;99.90
23156;DHT22;11746;50.876;4.246;2023-02-15T01:23:25;7.00;99.90
23156;DHT22;11746;50.876;4.246;2023-02-15T01:25:51;7.00;99.90
23156;DHT22;11746;50.876;4.246;2023-02-15T01:28:17;7.00;99.90
23156;DHT22;11746;50.876;4.246;2023-02-15T01:30:43;7.00;99.90
23156;DHT22;11746;50.876;4.246;2023-02-15T01:33:10;7.10;99.90
23156;DHT22;11746;50.876;4.246;2023-02-15T01:35:43;7.00;99.90
23156;DHT22;11746;50.876;4.246;2023-02-15T01:38:10;7.00;99.90
23156;DHT22;11746;50.876;4.246;2023-02-15T01:40:36;7.20;99.90
23156;DHT22;11746;50.876;4.246;2023-02-15T01:43:01;7.20;99.90
23156;DHT22;11746;50.876;4.246;2023-02-15T01:45:30;7.20;99.90
23156;DHT22;11746;50.876;4.246;2023-02-15T01:48:16;7.10;99.90
23156;DHT22;11746;50.876;4.246;2023-02-15T01:50:47;7.10;99.90
23156;DHT22;11746;50.876;4.246;2023-02-15T01:55:58;7.10;99.90
23156;DHT22;11746;50.876;4.246;2023-02-15T01:58:26;7.10;99.90
23156;DHT22;11746;50.876;4.246;2023-02-15T02:00:54;7.00;99.90
23156;DHT22;11746;50.876;4.246;2023-02-15T02:03:34;7.00;99.90
23156;DHT22;11746;50.876;4.246;2023-02-15T02:06:02;7.00;99.90
23156;DHT22;11746;50.876;4.246;2023-02-15T02:08:28;6.90;99.90
23156;DHT22;11746;50.876;4.246;2023-02-15T02:10:54;6.90;99.90
23156;DHT22;11746;50.876;4.246;2023-02-15T02:13:20;6.80;99.90
23156;DHT22;11746;50.876;4.246;2023-02-15T02:16:00;6.80;99.90
23156;DHT22;11746;50.876;4.246;2023-02-15T02:18:36;6.90;99.90
23156;DHT22;11746;50.876;4.246;2023-02-15T02:32:49;7.00;99.90
23156;DHT22;11746;50.876;4.246;2023-02-15T02:46:54;7.10;99.90
23156;DHT22;11746;50.876;4.246;2023-02-15T02:49:33;7.00;99.90
23156;DHT22;11746;50.876;4.246;2023-02-15T02:52:02;6.90;99.90
23156;DHT22;11746;50.876;4.246;2023-02-15T02:54:29;6.90;99.90
23156;DHT22;11746;50.876;4.246;2023-02-15T02:56:59;6.90;99.90
23156;DHT22;11746;50.876;4.246;2023-02-15T02:59:39;6.90;99.90
23156;DHT22;11746;50.876;4.246;2023-02-15T03:02:34;6.90;99.90
23156;DHT22;11746;50.876;4.246;2023-02-15T03:05:06;6.80;99.90
23156;DHT22;11746;50.876;4.246;2023-02-15T03:07:34;6.80;99.90
23156;DHT22;11746;50.876;4.246;2023-02-15T03:10:04;6.80;99.90
23156;DHT22;11746;50.876;4.246;2023-02-15T03:12:36;6.70;99.90
23156;DHT22;11746;50.876;4.246;2023-02-15T03:15:20;6.70;99.90
23156;DHT22;11746;50.876;4.246;2023-02-15T03:17:57;6.70;99.90
23156;DHT22;11746;50.876;4.246;2023-02-15T03:20:34;6.70;99.90
23156;DHT22;11746;50.876;4.246;2023-02-15T03:23:06;6.60;99.90
23156;DHT22;11746;50.876;4.246;2023-02-15T03:25:52;6.60;99.90
23156;DHT22;11746;50.876;4.246;2023-02-15T03:28:45;6.50;99.90
23156;DHT22;11746;50.876;4.246;2023-02-15T03:31:12;6.60;99.90
23156;DHT22;11746;50.876;4.246;2023-02-15T03:33:44;6.60;99.90
23156;DHT22;11746;50.876;4.246;2023-02-15T03:36:43;6.60;99.90
23156;DHT22;11746;50.876;4.246;2023-02-15T03:39:26;6.60;99.90
23156;DHT22;11746;50.876;4.246;2023-02-15T03:42:06;6.70;99.90
23156;DHT22;11746;50.876;4.246;2023-02-15T03:44:46;6.60;99.90
23156;DHT22;11746;50.876;4.246;2023-02-15T03:47:16;6.60;99.90
23156;DHT22;11746;50.876;4.246;2023-02-15T03:49:55;6.50;99.90
23156;DHT22;11746;50.876;4.246;2023-02-15T03:52:25;6.40;99.90
23156;DHT22;11746;50.876;4.246;2023-02-15T03:54:52;6.40;99.90
23156;DHT22;11746;50.876;4.246;2023-02-15T04:00:16;6.40;99.90
23156;DHT22;11746;50.876;4.246;2023-02-15T04:03:30;6.30;99.90
23156;DHT22;11746;50.876;4.246;2023-02-15T04:05:58;6.30;99.90
23156;DHT22;11746;50.876;4.246;2023-02-15T04:08:23;6.40;99.90
23156;DHT22;11746;50.876;4.246;2023-02-15T04:11:09;6.40;99.90
23156;DHT22;11746;50.876;4.246;2023-02-15T04:13:35;6.50;99.90
23156;DHT22;11746;50.876;4.246;2023-02-15T04:16:01;6.50;99.90
23156;DHT22;11746;50.876;4.246;2023-02-15T04:18:32;6.50;99.90
23156;DHT22;11746;50.876;4.246;2023-02-15T04:21:17;6.50;99.90
23156;DHT22;11746;50.876;4.246;2023-02-15T04:24:02;6.50;99.90
23156;DHT22;11746;50.876;4.246;2023-02-15T04:26:46;6.40;99.90
23156;DHT22;11746;50.876;4.246;2023-02-15T04:29:14;6.40;99.90
23156;DHT22;11746;50.876;4.246;2023-02-15T04:31:41;6.30;99.90
23156;DHT22;11746;50.876;4.246;2023-02-15T04:34:08;6.20;99.90
23156;DHT22;11746;50.876;4.246;2023-02-15T04:36:35;6.40;99.90
23156;DHT22;11746;50.876;4.246;2023-02-15T04:39:01;6.40;99.90
23156;DHT22;11746;50.876;4.246;2023-02-15T04:41:27;6.40;99.90
23156;DHT22;11746;50.876;4.246;2023-02-15T04:43:53;6.30;99.90
23156;DHT22;11746;50.876;4.246;2023-02-15T04:46:19;6.30;99.90
23156;DHT22;11746;50.876;4.246;2023-02-15T04:48:45;6.20;99.90
23156;DHT22;11746;50.876;4.246;2023-02-15T04:51:11;6.20;99.90
23156;DHT22;11746;50.876;4.246;2023-02-15T04:53:37;6.20;99.90
23156;DHT22;11746;50.876;4.246;2023-02-15T04:56:03;6.10;99.90
23156;DHT22;11746;50.876;4.246;2023-02-15T04:58:29;6.10;99.90
23156;DHT22;11746;50.876;4.246;2023-02-15T05:00:56;6.00;99.90
23156;DHT22;11746;50.876;4.246;2023-02-15T05:03:22;6.00;99.90
23156;DHT22;11746;50.876;4.246;2023-02-15T05:05:49;5.90;99.90
23156;DHT22;11746;50.876;4.246;2023-02-15T05:08:14;5.90;99.90
23156;DHT22;11746;50.876;4.246;2023-02-15T05:10:40;5.90;99.90
23156;DHT22;11746;50.876;4.246;2023-02-15T05:13:06;6.00;99.90
23156;DHT22;11746;50.876;4.246;2023-02-15T05:15:32;6.00;99.90
23156;DHT22;11746;50.876;4.246;2023-02-15T05:17:58;5.90;99.90
23156;DHT22;11746;50.876;4.246;2023-02-15T05:20:24;5.90;99.90
23156;DHT22;11746;50.876;4.246;2023-02-15T05:22:53;5.90;99.90
23156;DHT22;11746;50.876;4.246;2023-02-15T05:25:20;6.00;99.90
23156;DHT22;11746;50.876;4.246;2023-02-15T05:28:04;5.90;99.90
23156;DHT22;11746;50.876;4.246;2023-02-15T05:31:02;6.00;99.90
23156;DHT22;11746;50.876;4.246;2023-02-15T05:33:28;6.00;99.90
23156;DHT22;11746;50.876;4.246;2023-02-15T05:35:54;5.90;99.90
23156;DHT22;11746;50.876;4.246;2023-02-15T05:38:20;5.90;99.90
23156;DHT22;11746;50.876;4.246;2023-02-15T05:40:46;5.90;99.90
23156;DHT22;11746;50.876;4.246;2023-02-15T05:43:12;5.90;99.90
23156;DHT22;11746;50.876;4.246;2023-02-15T05:45:38;5.80;99.90
23156;DHT22;11746;50.876;4.246;2023-02-15T05:48:04;5.70;99.90
23156;DHT22;11746;50.876;4.246;2023-02-15T05:50:30;5.60;99.90
23156;DHT22;11746;50.876;4.246;2023-02-15T05:52:56;5.60;99.90
23156;DHT22;11746;50.876;4.246;2023-02-15T05:55:22;5.60;99.90
23156;DHT22;11746;50.876;4.246;2023-02-15T05:57:48;5.60;99.90
23156;DHT22;11746;50.876;4.246;2023-02-15T06:00:15;5.50;99.90
23156;DHT22;11746;50.876;4.246;2023-02-15T06:02:41;5.30;99.90
23156;DHT22;11746;50.876;4.246;2023-02-15T06:05:07;5.30;99.90
23156;DHT22;11746;50.876;4.246;2023-02-15T06:07:33;5.30;99.90
23156;DHT22;11746;50.876;4.246;2023-02-15T06:09:59;5.30;99.90
23156;DHT22;11746;50.876;4.246;2023-02-15T06:12:25;5.30;99.90
23156;DHT22;11746;50.876;4.246;2023-02-15T06:14:51;5.30;99.90
23156;DHT22;11746;50.876;4.246;2023-02-15T06:17:17;5.30;99.90
23156;DHT22;11746;50.876;4.246;2023-02-15T06:19:43;5.40;99.90
23156;DHT22;11746;50.876;4.246;2023-02-15T06:22:09;5.40;99.90
23156;DHT22;11746;50.876;4.246;2023-02-15T06:24:35;5.30;99.90
23156;DHT22;11746;50.876;4.246;2023-02-15T06:27:01;5.40;99.90
23156;DHT22;11746;50.876;4.246;2023-02-15T06:29:27;5.30;99.90
23156;DHT22;11746;50.876;4.246;2023-02-15T06:31:53;5.30;99.90
23156;DHT22;11746;50.876;4.246;2023-02-15T06:34:19;5.30;99.90
23156;DHT22;11746;50.876;4.246;2023-02-15T06:36:45;5.20;99.90
23156;DHT22;11746;50.876;4.246;2023-02-15T06:39:10;5.10;99.90
23156;DHT22;11746;50.876;4.246;2023-02-15T06:41:36;5.10;99.90
23156;DHT22;11746;50.876;4.246;2023-02-15T06:44:02;5.10;99.90
23156;DHT22;11746;50.876;4.246;2023-02-15T06:46:28;5.10;99.90
23156;DHT22;11746;50.876;4.246;2023-02-15T06:48:54;5.20;99.90
23156;DHT22;11746;50.876;4.246;2023-02-15T06:51:20;5.20;99.90
23156;DHT22;11746;50.876;4.246;2023-02-15T06:53:46;5.30;99.90
23156;DHT22;11746;50.876;4.246;2023-02-15T06:56:12;5.40;99.90
23156;DHT22;11746;50.876;4.246;2023-02-15T06:58:39;5.40;99.90
23156;DHT22;11746;50.876;4.246;2023-02-15T07:01:06;5.40;99.90
23156;DHT22;11746;50.876;4.246;2023-02-15T07:03:32;5.40;99.90
23156;DHT22;11746;50.876;4.246;2023-02-15T07:06:00;5.40;99.90
23156;DHT22;11746;50.876;4.246;2023-02-15T07:08:27;5.30;99.90
23156;DHT22;11746;50.876;4.246;2023-02-15T07:10:55;5.10;99.90
23156;DHT22;11746;50.876;4.246;2023-02-15T07:13:41;5.10;99.90
23156;DHT22;11746;50.876;4.246;2023-02-15T07:16:08;5.10;99.90
23156;DHT22;11746;50.876;4.246;2023-02-15T07:18:35;5.20;99.90
23156;DHT22;11746;50.876;4.246;2023-02-15T07:21:01;5.30;99.90
23156;DHT22;11746;50.876;4.246;2023-02-15T07:23:27;5.40;99.90
23156;DHT22;11746;50.876;4.246;2023-02-15T07:26:00;5.40;99.90
23156;DHT22;11746;50.876;4.246;2023-02-15T07:28:27;5.60;99.90
23156;DHT22;11746;50.876;4.246;2023-02-15T07:30:53;5.60;99.90
23156;DHT22;11746;50.876;4.246;2023-02-15T07:33:20;5.80;99.90
23156;DHT22;11746;50.876;4.246;2023-02-15T07:35:59;5.90;99.90
23156;DHT22;11746;50.876;4.246;2023-02-15T07:38:30;6.10;99.90
23156;DHT22;11746;50.876;4.246;2023-02-15T07:41:07;6.20;99.90
23156;DHT22;11746;50.876;4.246;2023-02-15T07:43:35;6.20;99.90
23156;DHT22;11746;50.876;4.246;2023-02-15T07:46:08;6.20;99.90
23156;DHT22;11746;50.876;4.246;2023-02-15T07:48:35;6.30;99.90
23156;DHT22;11746;50.876;4.246;2023-02-15T07:51:04;6.20;99.90
23156;DHT22;11746;50.876;4.246;2023-02-15T07:53:30;6.30;99.90
23156;DHT22;11746;50.876;4.246;2023-02-15T07:56:01;6.50;99.90
23156;DHT22;11746;50.876;4.246;2023-02-15T07:58:28;6.50;99.90
23156;DHT22;11746;50.876;4.246;2023-02-15T08:01:13;6.60;99.90
23156;DHT22;11746;50.876;4.246;2023-02-15T08:03:39;6.50;99.90
23156;DHT22;11746;50.876;4.246;2023-02-15T08:06:06;6.60;99.90
23156;DHT22;11746;50.876;4.246;2023-02-15T08:08:34;6.60;99.90
23156;DHT22;11746;50.876;4.246;2023-02-15T08:11:15;6.50;99.90
23156;DHT22;11746;50.876;4.246;2023-02-15T08:21:40;6.50;99.90
23156;DHT22;11746;50.876;4.246;2023-02-15T08:24:07;6.60;99.90
23156;DHT22;11746;50.876;4.246;2023-02-15T08:26:34;6.60;99.90
23156;DHT22;11746;50.876;4.246;2023-02-15T08:29:01;6.70;99.90
23156;DHT22;11746;50.876;4.246;2023-02-15T08:31:28;6.80;99.90
23156;DHT22;11746;50.876;4.246;2023-02-15T08:33:55;6.70;99.90
23156;DHT22;11746;50.876;4.246;2023-02-15T08:36:24;6.50;99.90
23156;DHT22;11746;50.876;4.246;2023-02-15T08:38:51;6.50;99.90
23156;DHT22;11746;50.876;4.246;2023-02-15T08:43:47;6.50;99.90
23156;DHT22;11746;50.876;4.246;2023-02-15T08:46:14;6.60;99.90
23156;DHT22;11746;50.876;4.246;2023-02-15T08:48:41;6.60;99.90
23156;DHT22;11746;50.876;4.246;2023-02-15T08:53:37;6.70;99.90
23156;DHT22;11746;50.876;4.246;2023-02-15T08:56:03;6.80;99.90
23156;DHT22;11746;50.876;4.246;2023-02-15T08:58:30;6.80;99.90
23156;DHT22;11746;50.876;4.246;2023-02-15T09:00:57;6.80;99.90
23156;DHT22;11746;50.876;4.246;2023-02-15T09:03:23;6.90;99.90
23156;DHT22;11746;50.876;4.246;2023-02-15T09:05:49;7.00;99.90
23156;DHT22;11746;50.876;4.246;2023-02-15T09:08:15;6.90;99.90
23156;DHT22;11746;50.876;4.246;2023-02-15T09:10:41;7.00;99.90
23156;DHT22;11746;50.876;4.246;2023-02-15T09:13:07;7.00;99.90
23156;DHT22;11746;50.876;4.246;2023-02-15T09:15:33;7.10;99.90
23156;DHT22;11746;50.876;4.246;2023-02-15T09:17:59;7.00;99.90
23156;DHT22;11746;50.876;4.246;2023-02-15T09:20:28;6.90;99.90
23156;DHT22;11746;50.876;4.246;2023-02-15T09:22:54;7.10;99.90
23156;DHT22;11746;50.876;4.246;2023-02-15T09:25:20;7.20;99.90
23156;DHT22;11746;50.876;4.246;2023-02-15T09:27:46;7.20;99.90
23156;DHT22;11746;50.876;4.246;2023-02-15T09:30:12;7.20;99.90
23156;DHT22;11746;50.876;4.246;2023-02-15T09:32:38;7.30;99.90
23156;DHT22;11746;50.876;4.246;2023-02-15T09:35:05;7.40;99.90
23156;DHT22;11746;50.876;4.246;2023-02-15T09:37:31;7.50;99.90
23156;DHT22;11746;50.876;4.246;2023-02-15T09:39:57;7.40;99.90
23156;DHT22;11746;50.876;4.246;2023-02-15T09:45:58;7.60;99.90
23156;DHT22;11746;50.876;4.246;2023-02-15T09:48:41;7.70;99.90
23156;DHT22;11746;50.876;4.246;2023-02-15T09:54:14;7.90;99.90
23156;DHT22;11746;50.876;4.246;2023-02-15T10:11:34;8.00;99.90
23156;DHT22;11746;50.876;4.246;2023-02-15T10:14:43;8.10;99.90
23156;DHT22;11746;50.876;4.246;2023-02-15T10:17:35;8.10;99.90
23156;DHT22;11746;50.876;4.246;2023-02-15T10:26:06;8.40;99.90
23156;DHT22;11746;50.876;4.246;2023-02-15T10:28:52;8.30;99.90
23156;DHT22;11746;50.876;4.246;2023-02-15T10:31:48;8.40;99.90
23156;DHT22;11746;50.876;4.246;2023-02-15T10:34:17;8.50;99.90
23156;DHT22;11746;50.876;4.246;2023-02-15T10:47:36;9.10;99.90
23156;DHT22;11746;50.876;4.246;2023-02-15T10:50:27;9.30;99.90
23156;DHT22;11746;50.876;4.246;2023-02-15T11:06:36;9.60;99.90
23156;DHT22;11746;50.876;4.246;2023-02-15T11:09:09;9.60;99.90
23156;DHT22;11746;50.876;4.246;2023-02-15T11:11:40;9.60;99.90
23156;DHT22;11746;50.876;4.246;2023-02-15T11:14:38;9.80;99.90
23156;DHT22;11746;50.876;4.246;2023-02-15T11:17:11;10.00;99.90
23156;DHT22;11746;50.876;4.246;2023-02-15T11:20:04;9.90;99.90
23156;DHT22;11746;50.876;4.246;2023-02-15T11:22:33;10.00;99.90
23156;DHT22;11746;50.876;4.246;2023-02-15T11:25:01;9.90;99.90
23156;DHT22;11746;50.876;4.246;2023-02-15T11:27:33;10.00;99.90
23156;DHT22;11746;50.876;4.246;2023-02-15T11:30:13;10.10;99.90
23156;DHT22;11746;50.876;4.246;2023-02-15T11:32:44;10.10;99.90
23156;DHT22;11746;50.876;4.246;2023-02-15T11:40:36;10.50;99.90
23156;DHT22;11746;50.876;4.246;2023-02-15T11:43:38;10.50;99.90
23156;DHT22;11746;50.876;4.246;2023-02-15T11:46:03;10.80;99.90
23156;DHT22;11746;50.876;4.246;2023-02-15T11:48:31;10.90;99.90
23156;DHT22;11746;50.876;4.246;2023-02-15T11:50:58;10.70;99.90
23156;DHT22;11746;50.876;4.246;2023-02-15T11:53:25;10.70;99.90
23156;DHT22;11746;50.876;4.246;2023-02-15T11:55:56;10.70;99.90
23156;DHT22;11746;50.876;4.246;2023-02-15T11:58:45;10.60;99.90
23156;DHT22;11746;50.876;4.246;2023-02-15T12:01:36;10.70;99.90
23156;DHT22;11746;50.876;4.246;2023-02-15T12:04:21;10.60;99.90
23156;DHT22;11746;50.876;4.246;2023-02-15T12:07:09;10.70;99.90
23156;DHT22;11746;50.876;4.246;2023-02-15T12:12:31;11.00;99.90
23156;DHT22;11746;50.876;4.246;2023-02-15T12:15:00;11.10;99.90
23156;DHT22;11746;50.876;4.246;2023-02-15T12:17:58;11.00;99.90
23156;DHT22;11746;50.876;4.246;2023-02-15T12:20:29;11.00;99.90
23156;DHT22;11746;50.876;4.246;2023-02-15T12:23:04;11.30;99.90
23156;DHT22;11746;50.876;4.246;2023-02-15T12:25:54;11.60;99.90
23156;DHT22;11746;50.876;4.246;2023-02-15T12:28:49;11.70;99.90
23156;DHT22;11746;50.876;4.246;2023-02-15T12:31:35;11.90;99.90
23156;DHT22;11746;50.876;4.246;2023-02-15T12:34:09;11.80;99.90
23156;DHT22;11746;50.876;4.246;2023-02-15T12:36:53;11.80;99.90
23156;DHT22;11746;50.876;4.246;2023-02-15T12:39:32;12.00;99.90
23156;DHT22;11746;50.876;4.246;2023-02-15T12:42:15;12.30;99.90
23156;DHT22;11746;50.876;4.246;2023-02-15T12:44:57;12.60;99.90
23156;DHT22;11746;50.876;4.246;2023-02-15T12:47:24;12.70;99.90
23156;DHT22;11746;50.876;4.246;2023-02-15T12:50:14;12.60;99.90
23156;DHT22;11746;50.876;4.246;2023-02-15T12:52:45;12.80;99.90
23156;DHT22;11746;50.876;4.246;2023-02-15T12:55:25;12.90;99.90
23156;DHT22;11746;50.876;4.246;2023-02-15T12:58:08;13.10;99.90
23156;DHT22;11746;50.876;4.246;2023-02-15T13:00:34;13.10;99.90
23156;DHT22;11746;50.876;4.246;2023-02-15T13:03:01;13.00;99.90
23156;DHT22;11746;50.876;4.246;2023-02-15T13:05:39;13.20;99.90
23156;DHT22;11746;50.876;4.246;2023-02-15T13:08:14;13.30;99.90
23156;DHT22;11746;50.876;4.246;2023-02-15T13:11:04;13.30;99.90
23156;DHT22;11746;50.876;4.246;2023-02-15T13:13:32;13.30;99.90
23156;DHT22;11746;50.876;4.246;2023-02-15T13:16:11;13.60;99.90
23156;DHT22;11746;50.876;4.246;2023-02-15T13:18:43;13.70;99.90
23156;DHT22;11746;50.876;4.246;2023-02-15T13:21:20;13.60;99.90
23156;DHT22;11746;50.876;4.246;2023-02-15T13:24:01;14.10;99.90
23156;DHT22;11746;50.876;4.246;2023-02-15T13:26:31;14.10;99.90
23156;DHT22;11746;50.876;4.246;2023-02-15T13:29:48;13.90;99.90
23156;DHT22;11746;50.876;4.246;2023-02-15T13:31:55;13.90;99.90
23156;DHT22;11746;50.876;4.246;2023-02-15T13:34:33;13.60;99.90
23156;DHT22;11746;50.876;4.246;2023-02-15T13:51:44;14.30;99.90
23156;DHT22;11746;50.876;4.246;2023-02-15T13:58:03;15.00;99.90
23156;DHT22;11746;50.876;4.246;2023-02-15T14:17:23;15.80;99.90
23156;DHT22;11746;50.876;4.246;2023-02-15T14:19:57;15.90;99.90
23156;DHT22;11746;50.876;4.246;2023-02-15T14:22:35;16.30;99.90
23156;DHT22;11746;50.876;4.246;2023-02-15T14:27:50;16.70;99.90
23156;DHT22;11746;50.876;4.246;2023-02-15T14:30:41;16.30;99.90
23156;DHT22;11746;50.876;4.246;2023-02-15T14:35:51;15.60;99.90
23156;DHT22;11746;50.876;4.246;2023-02-15T14:39:18;15.40;99.90
23156;DHT22;11746;50.876;4.246;2023-02-15T14:41:51;15.40;99.90
23156;DHT22;11746;50.876;4.246;2023-02-15T14:44:40;15.30;99.90
23156;DHT22;11746;50.876;4.246;2023-02-15T14:47:16;15.80;99.90
23156;DHT22;11746;50.876;4.246;2023-02-15T14:49:44;16.00;99.90
23156;DHT22;11746;50.876;4.246;2023-02-15T14:52:11;15.70;99.90
23156;DHT22;11746;50.876;4.246;2023-02-15T15:00:01;15.80;99.90
23156;DHT22;11746;50.876;4.246;2023-02-15T15:02:48;16.10;99.90
23156;DHT22;11746;50.876;4.246;2023-02-15T15:05:33;16.10;99.90
23156;DHT22;11746;50.876;4.246;2023-02-15T15:08:01;16.40;99.90
23156;DHT22;11746;50.876;4.246;2023-02-15T15:10:57;16.00;99.90
23156;DHT22;11746;50.876;4.246;2023-02-15T15:13:54;16.50;99.90
23156;DHT22;11746;50.876;4.246;2023-02-15T15:19:09;17.00;99.90
23156;DHT22;11746;50.876;4.246;2023-02-15T15:21:51;17.00;99.90
23156;DHT22;11746;50.876;4.246;2023-02-15T15:35:37;16.80;99.90
23156;DHT22;11746;50.876;4.246;2023-02-15T15:49:47;14.20;99.90
23156;DHT22;11746;50.876;4.246;2023-02-15T15:52:16;14.00;99.90
23156;DHT22;11746;50.876;4.246;2023-02-15T15:54:44;14.30;99.90
23156;DHT22;11746;50.876;4.246;2023-02-15T15:59:51;14.30;99.90
23156;DHT22;11746;50.876;4.246;2023-02-15T16:02:17;14.30;99.90
23156;DHT22;11746;50.876;4.246;2023-02-15T16:04:44;14.20;99.90
23156;DHT22;11746;50.876;4.246;2023-02-15T16:10:04;13.80;99.90
23156;DHT22;11746;50.876;4.246;2023-02-15T16:12:34;13.60;99.90
23156;DHT22;11746;50.876;4.246;2023-02-15T16:15:34;13.40;99.90
23156;DHT22;11746;50.876;4.246;2023-02-15T16:18:01;13.40;99.90
23156;DHT22;11746;50.876;4.246;2023-02-15T16:20:33;13.30;99.90
23156;DHT22;11746;50.876;4.246;2023-02-15T16:28:13;13.00;99.90
23156;DHT22;11746;50.876;4.246;2023-02-15T16:30:40;12.90;99.90
23156;DHT22;11746;50.876;4.246;2023-02-15T16:33:13;12.70;99.90
23156;DHT22;11746;50.876;4.246;2023-02-15T16:35:59;12.50;99.90
23156;DHT22;11746;50.876;4.246;2023-02-15T16:41:27;12.30;99.90
23156;DHT22;11746;50.876;4.246;2023-02-15T16:43:56;12.20;99.90
23156;DHT22;11746;50.876;4.246;2023-02-15T16:46:38;12.20;99.90
23156;DHT22;11746;50.876;4.246;2023-02-15T16:49:14;12.20;99.90
23156;DHT22;11746;50.876;4.246;2023-02-15T16:51:43;12.10;99.90
23156;DHT22;11746;50.876;4.246;2023-02-15T16:54:18;12.10;99.90
23156;DHT22;11746;50.876;4.246;2023-02-15T16:56:45;12.00;99.90
23156;DHT22;11746;50.876;4.246;2023-02-15T16:59:32;12.00;99.90
23156;DHT22;11746;50.876;4.246;2023-02-15T17:02:02;11.80;99.90
23156;DHT22;11746;50.876;4.246;2023-02-15T17:04:31;11.70;99.90
23156;DHT22;11746;50.876;4.246;2023-02-15T17:07:16;11.50;99.90
23156;DHT22;11746;50.876;4.246;2023-02-15T17:09:53;11.40;99.90
23156;DHT22;11746;50.876;4.246;2023-02-15T17:12:52;11.40;99.90
23156;DHT22;11746;50.876;4.246;2023-02-15T17:18:03;11.20;99.90
23156;DHT22;11746;50.876;4.246;2023-02-15T17:20:31;11.10;99.90
23156;DHT22;11746;50.876;4.246;2023-02-15T17:22:59;11.00;99.90
23156;DHT22;11746;50.876;4.246;2023-02-15T17:25:45;11.10;99.90
23156;DHT22;11746;50.876;4.246;2023-02-15T17:28:19;10.90;99.90
23156;DHT22;11746;50.876;4.246;2023-02-15T17:30:45;10.90;99.90
23156;DHT22;11746;50.876;4.246;2023-02-15T17:33:38;10.80;99.90
23156;DHT22;11746;50.876;4.246;2023-02-15T17:36:09;10.60;99.90
23156;DHT22;11746;50.876;4.246;2023-02-15T17:38:40;10.60;99.90
23156;DHT22;11746;50.876;4.246;2023-02-15T17:41:28;10.70;99.90
23156;DHT22;11746;50.876;4.246;2023-02-15T17:43:55;10.60;99.90
23156;DHT22;11746;50.876;4.246;2023-02-15T17:46:21;10.70;99.90
23156;DHT22;11746;50.876;4.246;2023-02-15T17:48:52;10.60;99.90
23156;DHT22;11746;50.876;4.246;2023-02-15T17:51:20;10.70;99.90
23156;DHT22;11746;50.876;4.246;2023-02-15T17:53:46;10.60;99.90
23156;DHT22;11746;50.876;4.246;2023-02-15T17:56:35;10.70;99.90
23156;DHT22;11746;50.876;4.246;2023-02-15T17:59:02;10.60;99.90
23156;DHT22;11746;50.876;4.246;2023-02-15T18:01:35;10.50;99.90
23156;DHT22;11746;50.876;4.246;2023-02-15T18:04:20;10.40;99.90
23156;DHT22;11746;50.876;4.246;2023-02-15T18:07:04;10.40;99.90
23156;DHT22;11746;50.876;4.246;2023-02-15T18:09:48;10.30;99.90
23156;DHT22;11746;50.876;4.246;2023-02-15T18:12:34;10.40;99.90
23156;DHT22;11746;50.876;4.246;2023-02-15T18:15:05;10.30;99.90
23156;DHT22;11746;50.876;4.246;2023-02-15T18:17:43;10.40;99.90
23156;DHT22;11746;50.876;4.246;2023-02-15T18:20:25;10.30;99.90
23156;DHT22;11746;50.876;4.246;2023-02-15T18:22:53;10.40;99.90
23156;DHT22;11746;50.876;4.246;2023-02-15T18:25:20;10.40;99.90
23156;DHT22;11746;50.876;4.246;2023-02-15T18:27:48;10.40;99.90
23156;DHT22;11746;50.876;4.246;2023-02-15T18:30:17;10.20;99.90
23156;DHT22;11746;50.876;4.246;2023-02-15T18:32:44;10.20;99.90
23156;DHT22;11746;50.876;4.246;2023-02-15T18:35:16;10.10;99.90
23156;DHT22;11746;50.876;4.246;2023-02-15T18:37:43;10.00;99.90
23156;DHT22;11746;50.876;4.246;2023-02-15T18:40:32;10.00;99.90
23156;DHT22;11746;50.876;4.246;2023-02-15T18:42:58;10.20;99.90
23156;DHT22;11746;50.876;4.246;2023-02-15T18:45:26;10.00;99.90
23156;DHT22;11746;50.876;4.246;2023-02-15T18:47:56;9.90;99.90
23156;DHT22;11746;50.876;4.246;2023-02-15T18:50:23;9.80;99.90
23156;DHT22;11746;50.876;4.246;2023-02-15T18:52:51;9.60;99.90
23156;DHT22;11746;50.876;4.246;2023-02-15T18:57:46;9.50;99.90
23156;DHT22;11746;50.876;4.246;2023-02-15T19:00:34;9.40;99.90
23156;DHT22;11746;50.876;4.246;2023-02-15T19:03:01;9.40;99.90
23156;DHT22;11746;50.876;4.246;2023-02-15T19:05:28;9.40;99.90
23156;DHT22;11746;50.876;4.246;2023-02-15T19:07:55;9.50;99.90
23156;DHT22;11746;50.876;4.246;2023-02-15T19:10:26;9.50;99.90
23156;DHT22;11746;50.876;4.246;2023-02-15T19:12:53;9.50;99.90
23156;DHT22;11746;50.876;4.246;2023-02-15T19:15:24;9.50;99.90
23156;DHT22;11746;50.876;4.246;2023-02-15T19:17:51;9.50;99.90
23156;DHT22;11746;50.876;4.246;2023-02-15T19:20:20;9.40;99.90
23156;DHT22;11746;50.876;4.246;2023-02-15T19:22:49;9.50;99.90